Nikitis — SVA7358 — position and weather

sailwx.info

Track history (hours):
 
Tides and Currents Weather Stations Pressure Air Temp Water Temp Dewpoint Dewpoint Depression Visibility Wind Speed Wind Dir Waves Ship Positions

Nikitis

Last reported at 2018-Apr-20 18:30 UTC. Time now 2018-Apr-20 18:43 UTC.
Position N 40°51' E 024°42'.

Length 39 m.

Type: Passenger vessel. MMSI: 239992800.

Date/timePositionNaut miles runAvg speedWind from/ knotsBaromVisibWave heightAir tempDewpointWater temp
2018-Apr-20 18:30N 40°51' E 024°42'0 0.0
2018-Apr-20 18:00N 40°51' E 024°42'0 0.1
2018-Apr-20 17:12N 40°51' E 024°42'0 0.6
2018-Apr-20 17:00N 40°51' E 024°42'3 5.6
2018-Apr-20 16:30N 40°49' E 024°42'2 3.8
2018-Apr-20 16:00N 40°47' E 024°42'0 0.0
2018-Apr-20 15:30N 40°47' E 024°42'2 3.7
2018-Apr-20 15:00N 40°49' E 024°41'3 6.0
2018-Apr-20 14:30N 40°51' E 024°42'0 0.0
2018-Apr-20 14:00N 40°51' E 024°42'0 0.0
2018-Apr-20 13:29N 40°51' E 024°42'0 0.0
2018-Apr-20 13:00N 40°51' E 024°42'0 0.0
2018-Apr-20 12:30N 40°51' E 024°42'1 1.5
2018-Apr-20 12:00N 40°52' E 024°41'4 7.3
2018-Apr-20 11:30N 40°48' E 024°42'1 2.5
2018-Apr-20 11:00N 40°47' E 024°42'0 0.0
2018-Apr-20 10:30N 40°47' E 024°42'0 0.3
2018-Apr-20 10:00N 40°47' E 024°42'4 7.3
2018-Apr-20 09:30N 40°50' E 024°41'1 2.5
2018-Apr-20 09:00N 40°51' E 024°42'0 0.1
2018-Apr-20 08:30N 40°51' E 024°42'0 0.0
2018-Apr-19 19:24N 40°51' E 024°42'0 0.0
2018-Apr-19 19:00N 40°51' E 024°42'1 2.0
2018-Apr-19 18:28N 40°51' E 024°41'4 8.4
2018-Apr-19 18:00N 40°47' E 024°42'0 0.1
2018-Apr-19 17:30N 40°47' E 024°42'0 0.0
2018-Apr-19 17:00N 40°47' E 024°42'2 3.1
2018-Apr-19 16:30N 40°48' E 024°42'3 6.1
2018-Apr-19 16:00N 40°51' E 024°42'0 0.0
2018-Apr-19 15:30N 40°51' E 024°42'3 5.7
2018-Apr-19 15:00N 40°49' E 024°42'2 3.5
2018-Apr-19 14:30N 40°47' E 024°42'0 0.0
2018-Apr-19 14:00N 40°47' E 024°42'2 3.2
2018-Apr-19 13:30N 40°48' E 024°42'3 6.2
2018-Apr-19 13:00N 40°51' E 024°42'0 0.0
2018-Apr-19 12:30N 40°51' E 024°42'0 0.1
2018-Apr-19 12:00N 40°51' E 024°42'0 0.0
2018-Apr-19 11:30N 40°51' E 024°42'0 0.0
2018-Apr-19 11:00N 40°51' E 024°42'0 0.0
2018-Apr-19 10:30N 40°51' E 024°42'0 0.1
2018-Apr-19 10:00N 40°51' E 024°42'0 0.0
2018-Apr-19 09:30N 40°51' E 024°42'1 2.1
2018-Apr-19 09:00N 40°51' E 024°41'4 7.2
2018-Apr-19 08:30N 40°47' E 024°42'1 2.1
2018-Apr-19 08:00N 40°48' E 024°42'3 6.1
2018-Apr-19 07:30N 40°51' E 024°42'0 0.0
2018-Apr-19 07:00N 40°51' E 024°42'3 5.7
2018-Apr-19 06:30N 40°49' E 024°42'2 3.7
2018-Apr-19 06:00N 40°47' E 024°42'0 0.0
2018-Apr-19 05:30N 40°47' E 024°42'0 0.0
2018-Apr-17 11:46N 40°47' E 024°42'0 0.0
2018-Apr-17 11:31N 40°47' E 024°42'4 8.1
2018-Apr-17 11:00N 40°51' E 024°41'1 2.3
2018-Apr-17 10:31N 40°51' E 024°42'0 0.0
2018-Apr-17 10:00N 40°51' E 024°42'1 1.5
2018-Apr-17 09:30N 40°52' E 024°41'4 7.5
2018-Apr-17 09:00N 40°48' E 024°42'1 2.0
2018-Apr-17 08:30N 40°49' E 024°41'3 5.4
2018-Apr-17 08:00N 40°51' E 024°42'3 5.1
2018-Apr-17 07:30N 40°49' E 024°41'1 2.0
2018-Apr-17 07:00N 40°48' E 024°42'4 7.0
2018-Apr-17 06:30N 40°51' E 024°42'0 0.1
2018-Apr-17 06:01N 40°51' E 024°42'3 5.8
2018-Apr-17 05:31N 40°49' E 024°42'2 3.6
2018-Apr-17 05:00N 40°47' E 024°42'0 0.0
2018-Apr-16 18:21N 40°47' E 024°42'0 0.1
2018-Apr-16 18:00N 40°47' E 024°42'3 6.8
2018-Apr-16 17:30N 40°50' E 024°41'2 3.3
2018-Apr-16 17:00N 40°52' E 024°42'3 6.0
2018-Apr-16 16:30N 40°49' E 024°43'2 3.5
2018-Apr-16 16:00N 40°47' E 024°42'0 0.0
2018-Apr-16 15:30N 40°47' E 024°42'2 3.3
2018-Apr-16 15:00N 40°48' E 024°42'3 6.2
2018-Apr-16 14:30N 40°51' E 024°42'0 0.0
2018-Apr-16 14:00N 40°51' E 024°42'0 0.0
2018-Apr-16 13:29N 40°51' E 024°42'0 1.0
2018-Apr-16 13:00N 40°52' E 024°42'3 6.7
2018-Apr-16 12:30N 40°48' E 024°43'2 3.3
2018-Apr-16 12:00N 40°47' E 024°42'0 0.0
2018-Apr-16 11:30N 40°47' E 024°42'0 0.0
2018-Apr-16 11:00N 40°47' E 024°42'0 0.0
2018-Apr-16 10:30N 40°47' E 024°42'0 0.0
2018-Apr-16 10:00N 40°47' E 024°42'0 0.0
2018-Apr-16 09:30N 40°47' E 024°42'2 5.0
2018-Apr-16 09:00N 40°49' E 024°41'3 5.1
2018-Apr-16 08:30N 40°51' E 024°42'0 0.0
2018-Apr-16 08:00N 40°51' E 024°42'0 0.0
2018-Apr-16 07:30N 40°51' E 024°42'0 0.0
2018-Apr-16 07:00N 40°51' E 024°42'0 0.0
2018-Apr-16 06:30N 40°51' E 024°42'0 0.0
2018-Apr-16 06:00N 40°51' E 024°42'0 0.0
2018-Apr-16 05:30N 40°51' E 024°42'0 0.0
2018-Apr-16 05:00N 40°51' E 024°42'0 0.7
2018-Apr-16 04:30N 40°52' E 024°42'4 7.0
2018-Apr-16 04:00N 40°48' E 024°43'1 2.7
2018-Apr-16 03:30N 40°47' E 024°42'0 0.0
2018-Apr-15 18:56N 40°47' E 024°42'0 0.0
2018-Apr-15 18:31N 40°47' E 024°42'0 0.0
2018-Apr-15 18:01N 40°47' E 024°42'2 3.6
2018-Apr-15 17:30N 40°48' E 024°41'3 6.1
2018-Apr-15 17:00N 40°51' E 024°42'0 0.0
2018-Apr-15 16:30N 40°51' E 024°42'2 3.1
2018-Apr-15 16:00N 40°50' E 024°42'3 6.4
2018-Apr-15 15:30N 40°47' E 024°42'0 0.0
2018-Apr-15 15:00N 40°47' E 024°42'0 0.0
2018-Apr-15 14:30N 40°47' E 024°42'0 0.0
2018-Apr-15 14:00N 40°47' E 024°42'2 4.4
2018-Apr-15 13:31N 40°49' E 024°41'3 5.3
2018-Apr-15 13:01N 40°51' E 024°42'0 0.0
2018-Apr-15 12:30N 40°51' E 024°42'0 0.0
2018-Apr-15 12:00N 40°51' E 024°42'1 1.6
2018-Apr-15 11:31N 40°52' E 024°41'4 7.5
2018-Apr-15 11:00N 40°48' E 024°42'1 2.4
2018-Apr-15 10:30N 40°49' E 024°41'3 6.0
2018-Apr-15 10:00N 40°51' E 024°42'0 0.0
2018-Apr-15 09:30N 40°51' E 024°42'0 0.0
2018-Apr-15 08:59N 40°51' E 024°42'2 3.3
2018-Apr-15 08:30N 40°50' E 024°41'3 6.1
2018-Apr-15 08:00N 40°47' E 024°42'2 3.9
2018-Apr-15 07:28N 40°49' E 024°41'2 5.3
2018-Apr-15 07:00N 40°51' E 024°42'0 0.6
2018-Apr-15 06:30N 40°52' E 024°42'4 6.6
2018-Apr-15 05:58N 40°48' E 024°43'1 2.8
2018-Apr-15 05:30N 40°47' E 024°42'0 0.0
2018-Apr-14 16:50N 40°47' E 024°42'0 0.0
2018-Apr-14 16:30N 40°47' E 024°42'0 0.1
2018-Apr-14 16:00N 40°47' E 024°42'4 7.3
2018-Apr-14 15:30N 40°50' E 024°41'1 2.6
2018-Apr-14 15:00N 40°51' E 024°42'0 0.0
2018-Apr-14 13:09N 40°51' E 024°42'0 0.6
2018-Apr-14 13:00N 40°51' E 024°42'3 6.1
2018-Apr-14 12:30N 40°48' E 024°42'0 0.3
2018-Apr-14 12:00N 40°48' E 024°42'3 6.3
2018-Apr-14 11:30N 40°51' E 024°42'0 0.1
2018-Apr-14 11:00N 40°51' E 024°42'3 5.6
2018-Apr-14 10:30N 40°49' E 024°41'2 3.9
2018-Apr-14 10:00N 40°47' E 024°42'0 0.0
2018-Apr-14 09:30N 40°47' E 024°42'3 6.2
2018-Apr-14 09:00N 40°50' E 024°41'2 3.6
2018-Apr-14 08:30N 40°51' E 024°42'0 0.0
2018-Apr-14 08:00N 40°51' E 024°42'0 0.0
2018-Apr-14 07:30N 40°51' E 024°42'0 0.0
2018-Apr-14 07:00N 40°51' E 024°42'0 0.0
2018-Apr-14 06:30N 40°51' E 024°42'0 0.0
2018-Apr-14 06:00N 40°51' E 024°42'0 0.0
2018-Apr-14 05:30N 40°51' E 024°42'1 2.4
2018-Apr-14 05:00N 40°50' E 024°41'4 7.6
2018-Apr-14 04:30N 40°47' E 024°42'0 0.0
2018-Apr-13 12:46N 40°47' E 024°42'0 0.0
2018-Apr-13 12:30N 40°47' E 024°42'0 0.0
2018-Apr-13 12:00N 40°47' E 024°42'0 0.0
2018-Apr-13 11:30N 40°47' E 024°42'4 8.0
2018-Apr-13 11:00N 40°51' E 024°41'1 2.0
2018-Apr-13 10:30N 40°52' E 024°42'4 8.8
2018-Apr-13 10:00N 40°47' E 024°42'3 6.2
2018-Apr-13 09:30N 40°50' E 024°41'1 2.9
2018-Apr-13 09:00N 40°51' E 024°42'1 2.0
2018-Apr-13 08:30N 40°51' E 024°41'4 8.5
2018-Apr-13 08:00N 40°47' E 024°42'0 0.0
2018-Apr-13 07:30N 40°47' E 024°42'0 0.0
2018-Apr-13 07:00N 40°47' E 024°42'4 7.3
2018-Apr-13 06:30N 40°50' E 024°41'1 0.1
2018-Apr-12 19:02N 40°51' E 024°42'0 0.2
2018-Apr-12 19:01N 40°51' E 024°42'1 2.1
2018-Apr-12 18:31N 40°51' E 024°41'4 7.8
2018-Apr-12 18:00N 40°47' E 024°42'0 0.0
2018-Apr-12 17:30N 40°47' E 024°42'0 0.0
2018-Apr-12 17:01N 40°47' E 024°42'2 3.1
2018-Apr-12 16:31N 40°48' E 024°42'3 6.3
2018-Apr-12 16:00N 40°51' E 024°42'0 0.0
2018-Apr-12 15:31N 40°51' E 024°42'0 0.0
2018-Apr-12 09:11N 40°51' E 024°42'0 0.0
2018-Apr-12 09:00N 40°51' E 024°42'0 0.0
2018-Apr-12 08:30N 40°51' E 024°42'0 0.0
2018-Apr-12 08:00N 40°51' E 024°42'0 0.0
2018-Apr-12 07:30N 40°51' E 024°42'0 0.0
2018-Apr-12 07:00N 40°51' E 024°42'0 0.0
2018-Apr-12 06:30N 40°51' E 024°42'0 0.0
2018-Apr-12 06:00N 40°51' E 024°42'0 0.0
2018-Apr-12 05:30N 40°51' E 024°42'0 0.0
2018-Apr-12 05:00N 40°51' E 024°42'0 0.6
2018-Apr-12 04:30N 40°52' E 024°42'3 5.9
2018-Apr-12 04:00N 40°49' E 024°42'2 0.2
2018-Apr-11 19:28N 40°47' E 024°42'2 3.6
2018-Apr-11 19:00N 40°48' E 024°42'3 6.0
2018-Apr-11 18:30N 40°51' E 024°42'0 0.0
2018-Apr-11 18:00N 40°51' E 024°42'1 2.0
2018-Apr-11 17:30N 40°51' E 024°41'4 8.4
2018-Apr-11 17:00N 40°47' E 024°42'0 0.1
2018-Apr-11 16:30N 40°47' E 024°42'0 0.6
2018-Apr-11 16:00N 40°47' E 024°43'0 0.0
2018-Apr-11 15:30N 40°47' E 024°43'0 0.0
2018-Apr-11 15:00N 40°47' E 024°43'0 0.5
2018-Apr-11 14:30N 40°47' E 024°42'4 7.8
2018-Apr-11 14:00N 40°51' E 024°41'1 2.3
2018-Apr-11 13:30N 40°51' E 024°42'1 1.8
2018-Apr-11 13:00N 40°51' E 024°41'4 7.9
2018-Apr-11 12:30N 40°48' E 024°42'1 1.7
2018-Apr-11 12:00N 40°47' E 024°42'0 0.0
2018-Apr-11 11:30N 40°47' E 024°42'0 0.0
2018-Apr-11 11:00N 40°47' E 024°42'2 3.2
2018-Apr-11 10:30N 40°48' E 024°42'3 6.1
2018-Apr-11 10:00N 40°51' E 024°42'0 0.0
2018-Apr-11 09:30N 40°51' E 024°42'0 0.0
2018-Apr-11 08:58N 40°51' E 024°42'2 3.6
2018-Apr-11 08:30N 40°50' E 024°41'3 6.3
2018-Apr-11 08:00N 40°47' E 024°42'0 0.0
2018-Apr-11 07:30N 40°47' E 024°42'0 0.0
2018-Apr-11 07:00N 40°47' E 024°42'0 0.0
2018-Apr-11 06:30N 40°47' E 024°42'0 0.0
2018-Apr-11 06:00N 40°47' E 024°42'0 0.0
2018-Apr-11 05:30N 40°47' E 024°42'0 0.0
2018-Apr-11 05:00N 40°47' E 024°42'0 0.0
2018-Apr-11 04:30N 40°47' E 024°42'0 0.0
2018-Apr-11 04:00N 40°47' E 024°42'0 0.0
2018-Apr-11 03:30N 40°47' E 024°42'0 0.0
2018-Apr-11 03:00N 40°47' E 024°42'0 0.0
2018-Apr-11 02:30N 40°47' E 024°42'0 0.0
2018-Apr-11 01:58N 40°47' E 024°42'0 0.0
2018-Apr-11 01:30N 40°47' E 024°42'0 0.0
2018-Apr-11 01:00N 40°47' E 024°42'0 0.0
2018-Apr-11 00:30N 40°47' E 024°42'0 0.0
2018-Apr-11 00:00N 40°47' E 024°42'0 0.0
2018-Apr-10 23:29N 40°47' E 024°42'0 0.0
2018-Apr-10 23:00N 40°47' E 024°42'0 0.0
2018-Apr-10 22:30N 40°47' E 024°42'0 0.0
2018-Apr-10 22:00N 40°47' E 024°42'0 0.0
2018-Apr-10 21:30N 40°47' E 024°42'0 0.0
2018-Apr-10 20:59N 40°47' E 024°42'0 0.0
2018-Apr-10 20:30N 40°47' E 024°42'0 0.0
2018-Apr-10 20:00N 40°47' E 024°42'0 0.0
2018-Apr-10 19:30N 40°47' E 024°42'0 0.0
2018-Apr-10 19:00N 40°47' E 024°42'0 0.0
2018-Apr-10 18:30N 40°47' E 024°42'  
Track history (hours):
 
Tides and Currents Weather Stations Pressure Air Temp Water Temp Dewpoint Dewpoint Depression Visibility Wind Speed Wind Dir Waves Ship Positions

Nikitis

Last reported at 2018-Apr-20 18:30 UTC. Time now 2018-Apr-20 18:43 UTC.
Position N 40°51' E 024°42'.

Length 39 m.

Type: Passenger vessel. MMSI: 239992800.

Date/timePositionNaut miles runAvg speedWind from/ knotsBaromVisibWave heightAir tempDewpointWater temp
2018-Apr-20 18:30N 40°51' E 024°42'0 0.0
2018-Apr-20 18:00N 40°51' E 024°42'0 0.1
2018-Apr-20 17:12N 40°51' E 024°42'0 0.6
2018-Apr-20 17:00N 40°51' E 024°42'3 5.6
2018-Apr-20 16:30N 40°49' E 024°42'2 3.8
2018-Apr-20 16:00N 40°47' E 024°42'0 0.0
2018-Apr-20 15:30N 40°47' E 024°42'2 3.7
2018-Apr-20 15:00N 40°49' E 024°41'3 6.0
2018-Apr-20 14:30N 40°51' E 024°42'0 0.0
2018-Apr-20 14:00N 40°51' E 024°42'0 0.0
2018-Apr-20 13:29N 40°51' E 024°42'0 0.0
2018-Apr-20 13:00N 40°51' E 024°42'0 0.0
2018-Apr-20 12:30N 40°51' E 024°42'1 1.5
2018-Apr-20 12:00N 40°52' E 024°41'4 7.3
2018-Apr-20 11:30N 40°48' E 024°42'1 2.5
2018-Apr-20 11:00N 40°47' E 024°42'0 0.0
2018-Apr-20 10:30N 40°47' E 024°42'0 0.3
2018-Apr-20 10:00N 40°47' E 024°42'4 7.3
2018-Apr-20 09:30N 40°50' E 024°41'1 2.5
2018-Apr-20 09:00N 40°51' E 024°42'0 0.1
2018-Apr-20 08:30N 40°51' E 024°42'0 0.0
2018-Apr-19 19:24N 40°51' E 024°42'0 0.0
2018-Apr-19 19:00N 40°51' E 024°42'1 2.0
2018-Apr-19 18:28N 40°51' E 024°41'4 8.4
2018-Apr-19 18:00N 40°47' E 024°42'0 0.1
2018-Apr-19 17:30N 40°47' E 024°42'0 0.0
2018-Apr-19 17:00N 40°47' E 024°42'2 3.1
2018-Apr-19 16:30N 40°48' E 024°42'3 6.1
2018-Apr-19 16:00N 40°51' E 024°42'0 0.0
2018-Apr-19 15:30N 40°51' E 024°42'3 5.7
2018-Apr-19 15:00N 40°49' E 024°42'2 3.5
2018-Apr-19 14:30N 40°47' E 024°42'0 0.0
2018-Apr-19 14:00N 40°47' E 024°42'2 3.2
2018-Apr-19 13:30N 40°48' E 024°42'3 6.2
2018-Apr-19 13:00N 40°51' E 024°42'0 0.0
2018-Apr-19 12:30N 40°51' E 024°42'0 0.1
2018-Apr-19 12:00N 40°51' E 024°42'0 0.0
2018-Apr-19 11:30N 40°51' E 024°42'0 0.0
2018-Apr-19 11:00N 40°51' E 024°42'0 0.0
2018-Apr-19 10:30N 40°51' E 024°42'0 0.1
2018-Apr-19 10:00N 40°51' E 024°42'0 0.0
2018-Apr-19 09:30N 40°51' E 024°42'1 2.1
2018-Apr-19 09:00N 40°51' E 024°41'4 7.2
2018-Apr-19 08:30N 40°47' E 024°42'1 2.1
2018-Apr-19 08:00N 40°48' E 024°42'3 6.1
2018-Apr-19 07:30N 40°51' E 024°42'0 0.0
2018-Apr-19 07:00N 40°51' E 024°42'3 5.7
2018-Apr-19 06:30N 40°49' E 024°42'2 3.7
2018-Apr-19 06:00N 40°47' E 024°42'0 0.0
2018-Apr-19 05:30N 40°47' E 024°42'0 0.0
2018-Apr-17 11:46N 40°47' E 024°42'0 0.0
2018-Apr-17 11:31N 40°47' E 024°42'4 8.1
2018-Apr-17 11:00N 40°51' E 024°41'1 2.3
2018-Apr-17 10:31N 40°51' E 024°42'0 0.0
2018-Apr-17 10:00N 40°51' E 024°42'1 1.5
2018-Apr-17 09:30N 40°52' E 024°41'4 7.5
2018-Apr-17 09:00N 40°48' E 024°42'1 2.0
2018-Apr-17 08:30N 40°49' E 024°41'3 5.4
2018-Apr-17 08:00N 40°51' E 024°42'3 5.1
2018-Apr-17 07:30N 40°49' E 024°41'1 2.0
2018-Apr-17 07:00N 40°48' E 024°42'4 7.0
2018-Apr-17 06:30N 40°51' E 024°42'0 0.1
2018-Apr-17 06:01N 40°51' E 024°42'3 5.8
2018-Apr-17 05:31N 40°49' E 024°42'2 3.6
2018-Apr-17 05:00N 40°47' E 024°42'0 0.0
2018-Apr-16 18:21N 40°47' E 024°42'0 0.1
2018-Apr-16 18:00N 40°47' E 024°42'3 6.8
2018-Apr-16 17:30N 40°50' E 024°41'2 3.3
2018-Apr-16 17:00N 40°52' E 024°42'3 6.0
2018-Apr-16 16:30N 40°49' E 024°43'2 3.5
2018-Apr-16 16:00N 40°47' E 024°42'0 0.0
2018-Apr-16 15:30N 40°47' E 024°42'2 3.3
2018-Apr-16 15:00N 40°48' E 024°42'3 6.2
2018-Apr-16 14:30N 40°51' E 024°42'0 0.0
2018-Apr-16 14:00N 40°51' E 024°42'0 0.0
2018-Apr-16 13:29N 40°51' E 024°42'0 1.0
2018-Apr-16 13:00N 40°52' E 024°42'3 6.7
2018-Apr-16 12:30N 40°48' E 024°43'2 3.3
2018-Apr-16 12:00N 40°47' E 024°42'0 0.0
2018-Apr-16 11:30N 40°47' E 024°42'0 0.0
2018-Apr-16 11:00N 40°47' E 024°42'0 0.0
2018-Apr-16 10:30N 40°47' E 024°42'0 0.0
2018-Apr-16 10:00N 40°47' E 024°42'0 0.0
2018-Apr-16 09:30N 40°47' E 024°42'2 5.0
2018-Apr-16 09:00N 40°49' E 024°41'3 5.1
2018-Apr-16 08:30N 40°51' E 024°42'0 0.0
2018-Apr-16 08:00N 40°51' E 024°42'0 0.0
2018-Apr-16 07:30N 40°51' E 024°42'0 0.0
2018-Apr-16 07:00N 40°51' E 024°42'0 0.0
2018-Apr-16 06:30N 40°51' E 024°42'0 0.0
2018-Apr-16 06:00N 40°51' E 024°42'0 0.0
2018-Apr-16 05:30N 40°51' E 024°42'0 0.0
2018-Apr-16 05:00N 40°51' E 024°42'0 0.7
2018-Apr-16 04:30N 40°52' E 024°42'4 7.0
2018-Apr-16 04:00N 40°48' E 024°43'1 2.7
2018-Apr-16 03:30N 40°47' E 024°42'0 0.0
2018-Apr-15 18:56N 40°47' E 024°42'0 0.0
2018-Apr-15 18:31N 40°47' E 024°42'0 0.0
2018-Apr-15 18:01N 40°47' E 024°42'2 3.6
2018-Apr-15 17:30N 40°48' E 024°41'3 6.1
2018-Apr-15 17:00N 40°51' E 024°42'0 0.0
2018-Apr-15 16:30N 40°51' E 024°42'2 3.1
2018-Apr-15 16:00N 40°50' E 024°42'3 6.4
2018-Apr-15 15:30N 40°47' E 024°42'0 0.0
2018-Apr-15 15:00N 40°47' E 024°42'0 0.0
2018-Apr-15 14:30N 40°47' E 024°42'0 0.0
2018-Apr-15 14:00N 40°47' E 024°42'2 4.4
2018-Apr-15 13:31N 40°49' E 024°41'3 5.3
2018-Apr-15 13:01N 40°51' E 024°42'0 0.0
2018-Apr-15 12:30N 40°51' E 024°42'0 0.0
2018-Apr-15 12:00N 40°51' E 024°42'1 1.6
2018-Apr-15 11:31N 40°52' E 024°41'4 7.5
2018-Apr-15 11:00N 40°48' E 024°42'1 2.4
2018-Apr-15 10:30N 40°49' E 024°41'3 6.0
2018-Apr-15 10:00N 40°51' E 024°42'0 0.0
2018-Apr-15 09:30N 40°51' E 024°42'0 0.0
2018-Apr-15 08:59N 40°51' E 024°42'2 3.3
2018-Apr-15 08:30N 40°50' E 024°41'3 6.1
2018-Apr-15 08:00N 40°47' E 024°42'2 3.9
2018-Apr-15 07:28N 40°49' E 024°41'2 5.3
2018-Apr-15 07:00N 40°51' E 024°42'0 0.6
2018-Apr-15 06:30N 40°52' E 024°42'4 6.6
2018-Apr-15 05:58N 40°48' E 024°43'1 2.8
2018-Apr-15 05:30N 40°47' E 024°42'0 0.0
2018-Apr-14 16:50N 40°47' E 024°42'0 0.0
2018-Apr-14 16:30N 40°47' E 024°42'0 0.1
2018-Apr-14 16:00N 40°47' E 024°42'4 7.3
2018-Apr-14 15:30N 40°50' E 024°41'1 2.6
2018-Apr-14 15:00N 40°51' E 024°42'0 0.0
2018-Apr-14 13:09N 40°51' E 024°42'0 0.6
2018-Apr-14 13:00N 40°51' E 024°42'3 6.1
2018-Apr-14 12:30N 40°48' E 024°42'0 0.3
2018-Apr-14 12:00N 40°48' E 024°42'3 6.3
2018-Apr-14 11:30N 40°51' E 024°42'0 0.1
2018-Apr-14 11:00N 40°51' E 024°42'3 5.6
2018-Apr-14 10:30N 40°49' E 024°41'2 3.9
2018-Apr-14 10:00N 40°47' E 024°42'0 0.0
2018-Apr-14 09:30N 40°47' E 024°42'3 6.2
2018-Apr-14 09:00N 40°50' E 024°41'2 3.6
2018-Apr-14 08:30N 40°51' E 024°42'0 0.0
2018-Apr-14 08:00N 40°51' E 024°42'0 0.0
2018-Apr-14 07:30N 40°51' E 024°42'0 0.0
2018-Apr-14 07:00N 40°51' E 024°42'0 0.0
2018-Apr-14 06:30N 40°51' E 024°42'0 0.0
2018-Apr-14 06:00N 40°51' E 024°42'0 0.0
2018-Apr-14 05:30N 40°51' E 024°42'1 2.4
2018-Apr-14 05:00N 40°50' E 024°41'4 7.6
2018-Apr-14 04:30N 40°47' E 024°42'0 0.0
2018-Apr-13 12:46N 40°47' E 024°42'0 0.0
2018-Apr-13 12:30N 40°47' E 024°42'0 0.0
2018-Apr-13 12:00N 40°47' E 024°42'0 0.0
2018-Apr-13 11:30N 40°47' E 024°42'4 8.0
2018-Apr-13 11:00N 40°51' E 024°41'1 2.0
2018-Apr-13 10:30N 40°52' E 024°42'4 8.8
2018-Apr-13 10:00N 40°47' E 024°42'3 6.2
2018-Apr-13 09:30N 40°50' E 024°41'1 2.9
2018-Apr-13 09:00N 40°51' E 024°42'1 2.0
2018-Apr-13 08:30N 40°51' E 024°41'4 8.5
2018-Apr-13 08:00N 40°47' E 024°42'0 0.0
2018-Apr-13 07:30N 40°47' E 024°42'0 0.0
2018-Apr-13 07:00N 40°47' E 024°42'4 7.3
2018-Apr-13 06:30N 40°50' E 024°41'1 0.1
2018-Apr-12 19:02N 40°51' E 024°42'0 0.2
2018-Apr-12 19:01N 40°51' E 024°42'1 2.1
2018-Apr-12 18:31N 40°51' E 024°41'4 7.8
2018-Apr-12 18:00N 40°47' E 024°42'0 0.0
2018-Apr-12 17:30N 40°47' E 024°42'0 0.0
2018-Apr-12 17:01N 40°47' E 024°42'2 3.1
2018-Apr-12 16:31N 40°48' E 024°42'3 6.3
2018-Apr-12 16:00N 40°51' E 024°42'0 0.0
2018-Apr-12 15:31N 40°51' E 024°42'0 0.0
2018-Apr-12 09:11N 40°51' E 024°42'0 0.0
2018-Apr-12 09:00N 40°51' E 024°42'0 0.0
2018-Apr-12 08:30N 40°51' E 024°42'0 0.0
2018-Apr-12 08:00N 40°51' E 024°42'0 0.0
2018-Apr-12 07:30N 40°51' E 024°42'0 0.0
2018-Apr-12 07:00N 40°51' E 024°42'0 0.0
2018-Apr-12 06:30N 40°51' E 024°42'0 0.0
2018-Apr-12 06:00N 40°51' E 024°42'0 0.0
2018-Apr-12 05:30N 40°51' E 024°42'0 0.0
2018-Apr-12 05:00N 40°51' E 024°42'0 0.6
2018-Apr-12 04:30N 40°52' E 024°42'3 5.9
2018-Apr-12 04:00N 40°49' E 024°42'2 0.2
2018-Apr-11 19:28N 40°47' E 024°42'2 3.6
2018-Apr-11 19:00N 40°48' E 024°42'3 6.0
2018-Apr-11 18:30N 40°51' E 024°42'0 0.0
2018-Apr-11 18:00N 40°51' E 024°42'1 2.0
2018-Apr-11 17:30N 40°51' E 024°41'4 8.4
2018-Apr-11 17:00N 40°47' E 024°42'0 0.1
2018-Apr-11 16:30N 40°47' E 024°42'0 0.6
2018-Apr-11 16:00N 40°47' E 024°43'0 0.0
2018-Apr-11 15:30N 40°47' E 024°43'0 0.0
2018-Apr-11 15:00N 40°47' E 024°43'0 0.5
2018-Apr-11 14:30N 40°47' E 024°42'4 7.8
2018-Apr-11 14:00N 40°51' E 024°41'1 2.3
2018-Apr-11 13:30N 40°51' E 024°42'1 1.8
2018-Apr-11 13:00N 40°51' E 024°41'4 7.9
2018-Apr-11 12:30N 40°48' E 024°42'1 1.7
2018-Apr-11 12:00N 40°47' E 024°42'0 0.0
2018-Apr-11 11:30N 40°47' E 024°42'0 0.0
2018-Apr-11 11:00N 40°47' E 024°42'2 3.2
2018-Apr-11 10:30N 40°48' E 024°42'3 6.1
2018-Apr-11 10:00N 40°51' E 024°42'0 0.0
2018-Apr-11 09:30N 40°51' E 024°42'0 0.0
2018-Apr-11 08:58N 40°51' E 024°42'2 3.6
2018-Apr-11 08:30N 40°50' E 024°41'3 6.3
2018-Apr-11 08:00N 40°47' E 024°42'0 0.0
2018-Apr-11 07:30N 40°47' E 024°42'0 0.0
2018-Apr-11 07:00N 40°47' E 024°42'0 0.0
2018-Apr-11 06:30N 40°47' E 024°42'0 0.0
2018-Apr-11 06:00N 40°47' E 024°42'0 0.0
2018-Apr-11 05:30N 40°47' E 024°42'0 0.0
2018-Apr-11 05:00N 40°47' E 024°42'0 0.0
2018-Apr-11 04:30N 40°47' E 024°42'0 0.0
2018-Apr-11 04:00N 40°47' E 024°42'0 0.0
2018-Apr-11 03:30N 40°47' E 024°42'0 0.0
2018-Apr-11 03:00N 40°47' E 024°42'0 0.0
2018-Apr-11 02:30N 40°47' E 024°42'0 0.0
2018-Apr-11 01:58N 40°47' E 024°42'0 0.0
2018-Apr-11 01:30N 40°47' E 024°42'0 0.0
2018-Apr-11 01:00N 40°47' E 024°42'0 0.0
2018-Apr-11 00:30N 40°47' E 024°42'0 0.0
2018-Apr-11 00:00N 40°47' E 024°42'0 0.0
2018-Apr-10 23:29N 40°47' E 024°42'0 0.0
2018-Apr-10 23:00N 40°47' E 024°42'0 0.0
2018-Apr-10 22:30N 40°47' E 024°42'0 0.0
2018-Apr-10 22:00N 40°47' E 024°42'0 0.0
2018-Apr-10 21:30N 40°47' E 024°42'0 0.0
2018-Apr-10 20:59N 40°47' E 024°42'0 0.0
2018-Apr-10 20:30N 40°47' E 024°42'0 0.0
2018-Apr-10 20:00N 40°47' E 024°42'0 0.0
2018-Apr-10 19:30N 40°47' E 024°42'0 0.0
2018-Apr-10 19:00N 40°47' E 024°42'0 0.0
2018-Apr-10 18:30N 40°47' E 024°42'  

Dump ship's entire track history